createdAt,value
2018-06-25T18:33:36.996Z,20.94
2018-06-25T18:34:36.937Z,20.87
2018-06-25T18:35:36.926Z,20.70
2018-06-25T18:36:36.916Z,20.69
2018-06-25T18:37:36.903Z,20.58
2018-06-25T18:38:36.890Z,20.54
2018-06-25T18:39:37.005Z,20.33
2018-06-25T18:40:36.991Z,19.95
2018-06-25T18:41:36.974Z,19.66
2018-06-25T18:42:36.949Z,19.26
2018-06-25T18:43:36.918Z,18.81
2018-06-25T18:44:36.986Z,18.36
2018-06-25T18:45:36.856Z,18.00
2018-06-25T18:46:36.883Z,17.74
2018-06-25T18:47:36.800Z,17.44
2018-06-25T18:48:36.780Z,17.11
2018-06-25T18:49:36.783Z,16.96
2018-06-25T18:50:36.772Z,16.68
2018-06-25T18:51:36.749Z,16.42
2018-06-25T18:52:36.786Z,16.21
2018-06-25T18:53:36.719Z,16.09
2018-06-25T18:54:36.719Z,15.84
2018-06-25T18:55:36.729Z,15.64
2018-06-25T18:56:36.731Z,15.64
2018-06-25T18:57:36.690Z,15.51
2018-06-25T18:58:36.667Z,15.29
2018-06-25T18:59:36.689Z,15.09
2018-06-25T19:00:36.663Z,14.98
2018-06-25T19:01:36.637Z,14.92
2018-06-25T19:02:36.646Z,14.84
2018-06-25T19:03:36.649Z,14.65
2018-06-25T19:04:36.608Z,14.52
2018-06-25T19:05:36.689Z,14.40
2018-06-25T19:06:36.601Z,14.27
2018-06-25T19:07:36.584Z,14.29
2018-06-25T19:08:36.557Z,14.09
2018-06-25T19:09:36.578Z,14.04
2018-06-25T19:10:36.550Z,13.88
2018-06-25T19:11:36.560Z,13.85
2018-06-25T19:12:36.519Z,13.81
2018-06-25T19:13:36.547Z,13.60
2018-06-25T19:14:36.490Z,13.54
2018-06-25T19:15:36.509Z,13.41
2018-06-25T19:16:36.469Z,13.44
2018-06-25T19:17:36.471Z,13.20
2018-06-25T19:18:36.449Z,13.23
2018-06-25T19:19:36.433Z,13.10
2018-06-25T19:20:36.453Z,13.01
2018-06-25T19:21:36.430Z,13.00
2018-06-25T19:22:36.436Z,12.86
2018-06-25T19:23:36.448Z,12.86
2018-06-25T19:24:36.433Z,12.79
2018-06-25T19:25:36.367Z,12.77
2018-06-25T19:26:36.385Z,12.71
2018-06-25T19:27:36.371Z,12.70
2018-06-25T19:28:36.414Z,12.56
2018-06-25T19:29:36.337Z,12.56
2018-06-25T19:30:36.367Z,12.50
2018-06-25T19:31:36.328Z,12.45
2018-06-25T19:32:36.333Z,12.39
2018-06-25T19:33:36.347Z,12.37
2018-06-25T19:34:36.285Z,12.24
2018-06-25T19:35:36.257Z,12.23
2018-06-25T19:36:36.246Z,12.14
2018-06-25T19:37:36.294Z,12.12
2018-06-25T19:38:36.223Z,12.07
2018-06-25T19:39:36.267Z,12.09
2018-06-25T19:40:36.235Z,12.09
2018-06-25T19:41:36.230Z,11.96
2018-06-25T19:42:36.203Z,11.95
2018-06-25T19:43:36.189Z,11.94
2018-06-25T19:44:36.228Z,11.86
2018-06-25T19:45:36.188Z,11.88
2018-06-25T19:46:36.164Z,11.78
2018-06-25T19:47:36.135Z,11.75
2018-06-25T19:48:36.134Z,11.69
2018-06-25T19:49:36.119Z,11.65
2018-06-25T19:50:36.153Z,11.54
2018-06-25T19:51:36.103Z,11.60
2018-06-25T19:52:36.191Z,11.51
2018-06-25T19:53:36.071Z,11.44
2018-06-25T19:54:36.033Z,11.39
2018-06-25T19:55:36.041Z,11.37
2018-06-25T19:56:36.012Z,11.40
2018-06-25T19:57:36.029Z,11.32
2018-06-25T19:58:36.006Z,11.22
2018-06-25T19:59:36.043Z,11.36
2018-06-25T20:00:35.977Z,11.28
2018-06-25T20:01:35.963Z,11.27
2018-06-25T20:02:35.975Z,11.24
2018-06-25T20:03:35.952Z,11.24
2018-06-25T20:04:35.927Z,11.25
2018-06-25T20:05:35.918Z,11.19
2018-06-25T20:06:35.903Z,11.17
2018-06-25T20:07:35.895Z,11.04
2018-06-25T20:08:35.903Z,11.14
2018-06-25T20:09:35.883Z,11.02
2018-06-25T20:10:35.903Z,10.91
2018-06-25T20:11:35.862Z,10.99
2018-06-25T20:12:35.881Z,10.89
2018-06-25T20:13:35.826Z,10.89
2018-06-25T20:14:35.829Z,10.88
2018-06-25T20:15:35.835Z,10.88
2018-06-25T20:16:35.793Z,10.78
2018-06-25T20:17:37.195Z,10.76
2018-06-25T20:18:35.777Z,10.78
2018-06-25T20:19:41.182Z,10.92
2018-06-25T20:20:36.702Z,10.78
2018-06-25T20:21:35.747Z,10.73
2018-06-25T20:22:35.728Z,10.71
2018-06-25T20:23:35.717Z,10.74
2018-06-25T20:24:35.705Z,10.70
2018-06-25T20:25:35.726Z,10.67
2018-06-25T20:26:35.702Z,10.66
2018-06-25T20:27:35.684Z,10.59
2018-06-25T20:28:35.656Z,10.56
2018-06-25T20:29:35.649Z,10.52
2018-06-25T20:30:35.640Z,10.59
2018-06-25T20:31:35.672Z,10.53
2018-06-25T20:32:35.623Z,10.55
2018-06-25T20:33:35.632Z,10.44
2018-06-25T20:34:35.590Z,10.53
2018-06-25T20:35:35.577Z,10.45
2018-06-25T20:36:35.617Z,10.42
2018-06-25T20:37:35.566Z,10.45
2018-06-25T20:38:35.576Z,10.34
2018-06-25T20:39:35.537Z,10.51
2018-06-25T20:40:35.527Z,10.44
2018-06-25T20:41:35.555Z,10.44
2018-06-25T20:42:35.504Z,10.42
2018-06-25T20:43:35.493Z,10.47
2018-06-25T20:44:35.495Z,10.47
2018-06-25T20:45:35.464Z,10.51
2018-06-25T20:46:35.486Z,10.44
2018-06-25T20:47:35.443Z,10.45
2018-06-25T20:48:35.431Z,10.41
2018-06-25T20:49:35.422Z,10.33
2018-06-25T20:50:35.429Z,10.36
2018-06-25T20:51:35.468Z,10.33
2018-06-25T20:52:35.422Z,10.29
2018-06-25T20:53:35.378Z,10.20
2018-06-25T20:54:35.366Z,10.25
2018-06-25T20:55:35.352Z,10.29
2018-06-25T20:56:35.338Z,10.12
2018-06-25T20:57:35.377Z,10.18
2018-06-25T20:58:35.320Z,10.11
2018-06-25T20:59:35.306Z,10.15
2018-06-25T21:00:35.297Z,10.12
2018-06-25T21:01:35.294Z,10.09
2018-06-25T21:02:35.304Z,10.15
2018-06-25T21:03:35.268Z,10.04
2018-06-25T21:04:35.283Z,10.02
2018-06-25T21:05:35.236Z,9.94
2018-06-25T21:06:35.227Z,9.89
2018-06-25T21:07:35.216Z,9.87
2018-06-25T21:08:35.263Z,9.86
2018-06-25T21:09:35.198Z,9.87
2018-06-25T21:10:35.186Z,9.75
2018-06-25T21:11:35.167Z,9.72
2018-06-25T21:12:35.154Z,9.78
2018-06-25T21:13:35.172Z,9.76
2018-06-25T21:14:35.135Z,9.79
2018-06-25T21:15:35.132Z,9.93
2018-06-25T21:16:35.110Z,9.97
2018-06-25T21:17:35.146Z,10.15
2018-06-25T21:18:35.093Z,10.12
2018-06-25T21:19:35.072Z,10.14
2018-06-25T21:20:35.060Z,10.22
2018-06-25T21:21:35.061Z,10.14
2018-06-25T21:22:35.066Z,10.22
2018-06-25T21:23:35.027Z,10.20
2018-06-25T21:24:35.016Z,10.18
2018-06-25T21:25:35.039Z,10.15
2018-06-25T21:26:34.997Z,10.15
2018-06-25T21:27:35.528Z,10.12
2018-06-25T21:28:34.970Z,10.09
2018-06-25T21:29:34.995Z,10.12
2018-06-25T21:30:34.948Z,10.15
2018-06-25T21:31:34.934Z,10.14
2018-06-25T21:32:34.954Z,10.12
2018-06-25T21:33:34.922Z,10.14
2018-06-25T21:34:34.902Z,10.15
2018-06-25T21:35:34.889Z,10.22
2018-06-25T21:36:34.909Z,10.18
2018-06-25T21:37:34.870Z,10.25
2018-06-25T21:38:34.889Z,10.23
2018-06-25T21:39:34.857Z,10.26
2018-06-25T21:40:34.839Z,10.29
2018-06-25T21:41:34.823Z,10.22
2018-06-25T21:42:34.810Z,10.25
2018-06-25T21:43:34.837Z,10.17
2018-06-25T21:44:34.793Z,10.11
2018-06-25T21:45:34.790Z,10.11
2018-06-25T21:46:34.765Z,10.15
2018-06-25T21:47:34.760Z,9.99
2018-06-25T21:48:34.769Z,9.97
2018-06-25T21:49:34.734Z,10.02
2018-06-25T21:50:34.726Z,9.86
2018-06-25T21:51:34.751Z,9.83
2018-06-25T21:52:34.701Z,9.83
2018-06-25T21:53:34.695Z,9.89
2018-06-25T21:54:34.674Z,9.86
2018-06-25T21:55:34.669Z,9.78
2018-06-25T21:56:34.693Z,9.75
2018-06-25T21:57:34.651Z,9.74
2018-06-25T21:58:34.663Z,9.74
2018-06-25T21:59:34.621Z,9.68
2018-06-25T22:00:34.615Z,9.64
2018-06-25T22:01:34.627Z,9.61
2018-06-25T22:02:34.590Z,9.61
2018-06-25T22:03:34.585Z,9.60
2018-06-25T22:04:34.570Z,9.61
2018-06-25T22:05:34.591Z,9.60
2018-06-25T22:06:34.547Z,9.57
2018-06-25T22:07:34.533Z,9.56
2018-06-25T22:08:34.520Z,9.58
2018-06-25T22:09:34.517Z,9.50
2018-06-25T22:10:34.531Z,9.48
2018-06-25T22:11:34.487Z,9.46
2018-06-25T22:12:34.481Z,9.36
2018-06-25T22:13:34.465Z,9.39
2018-06-25T22:14:34.455Z,9.32
2018-06-25T22:15:34.478Z,9.46
2018-06-25T22:16:34.449Z,9.38
2018-06-25T22:17:34.416Z,9.39
2018-06-25T22:18:34.400Z,9.33
2018-06-25T22:19:34.395Z,9.48
2018-06-25T22:20:34.378Z,9.47
2018-06-25T22:21:34.402Z,9.47
2018-06-25T22:22:34.361Z,9.50
2018-06-25T22:23:34.347Z,9.60
2018-06-25T22:24:34.337Z,9.64
2018-06-25T22:25:34.352Z,9.69
2018-06-25T22:26:34.309Z,9.75
2018-06-25T22:27:34.309Z,9.74
2018-06-25T22:28:34.318Z,9.78
2018-06-25T22:29:35.030Z,9.91
2018-06-25T22:30:34.266Z,9.94
2018-06-25T22:31:34.253Z,10.01
2018-06-25T22:32:34.245Z,10.01
2018-06-25T22:33:34.274Z,10.11
2018-06-25T22:34:34.220Z,10.15
2018-06-25T22:35:34.206Z,10.18
2018-06-25T22:36:34.218Z,10.22
2018-06-25T22:37:34.190Z,10.33
2018-06-25T22:38:34.201Z,10.40
2018-06-25T22:39:34.172Z,10.38
2018-06-25T22:40:34.158Z,10.44
2018-06-25T22:41:34.145Z,10.42
2018-06-25T22:42:34.162Z,10.52
2018-06-25T22:43:34.152Z,10.55
2018-06-25T22:44:34.112Z,10.55
2018-06-25T22:45:34.108Z,10.60
2018-06-25T22:46:34.117Z,10.61
2018-06-25T22:47:34.127Z,10.59
2018-06-25T22:48:34.073Z,10.59
2018-06-25T22:49:34.057Z,10.55
2018-06-25T22:50:34.045Z,10.53
2018-06-25T22:51:34.582Z,10.61
2018-06-25T22:52:34.046Z,10.51
2018-06-25T22:53:34.015Z,10.67
2018-06-25T22:54:33.998Z,10.66
2018-06-25T22:55:34.020Z,10.63
2018-06-25T22:56:34.000Z,10.64
2018-06-25T22:57:33.972Z,10.66
2018-06-25T22:58:33.953Z,10.78
2018-06-25T22:59:33.940Z,10.76
2018-06-25T23:00:33.963Z,10.73
2018-06-25T23:01:33.923Z,10.78
2018-06-25T23:02:33.908Z,10.82
2018-06-25T23:03:33.919Z,10.85
2018-06-25T23:04:33.888Z,10.97
2018-06-25T23:05:33.906Z,11.04
2018-06-25T23:06:33.864Z,11.04
2018-06-25T23:07:33.848Z,11.07
2018-06-25T23:08:33.871Z,11.15
2018-06-25T23:09:33.846Z,11.07
2018-06-25T23:10:33.821Z,11.22
2018-06-25T23:11:33.838Z,11.10
2018-06-25T23:12:33.801Z,11.32
2018-06-25T23:13:33.784Z,11.33
2018-06-25T23:14:33.774Z,11.36
2018-06-25T23:15:33.771Z,11.24
2018-06-25T23:16:33.778Z,11.37
2018-06-25T23:17:33.745Z,11.39
2018-06-25T23:18:33.734Z,11.43
2018-06-25T23:19:33.718Z,11.44
2018-06-25T23:20:33.712Z,11.39
2018-06-25T23:21:33.733Z,11.40
2018-06-25T23:22:34.545Z,11.42
2018-06-25T23:23:33.703Z,11.51
2018-06-25T23:24:33.665Z,11.52
2018-06-25T23:25:33.656Z,11.55
2018-06-25T23:26:33.671Z,11.54
2018-06-25T23:27:33.644Z,11.47
2018-06-25T23:28:33.614Z,11.52
2018-06-25T23:29:34.531Z,11.51
2018-06-25T23:30:33.596Z,11.58
2018-06-25T23:31:33.583Z,11.47
2018-06-25T23:32:33.573Z,11.47
2018-06-25T23:33:33.578Z,11.39
2018-06-25T23:34:33.591Z,11.46
2018-06-25T23:35:33.536Z,11.58
2018-06-25T23:36:33.529Z,11.57
2018-06-25T23:37:33.564Z,11.47
2018-06-25T23:38:33.507Z,11.49
2018-06-25T23:39:33.551Z,11.54
2018-06-25T23:40:33.478Z,11.57
2018-06-25T23:41:33.467Z,11.51
2018-06-25T23:42:33.460Z,11.49
2018-06-25T23:43:33.449Z,11.54
2018-06-25T23:44:33.467Z,11.44
2018-06-25T23:45:33.438Z,11.43
2018-06-25T23:46:33.411Z,11.43
2018-06-25T23:47:33.408Z,11.42
2018-06-25T23:48:33.427Z,11.40
2018-06-25T23:49:33.389Z,11.46
2018-06-25T23:50:33.427Z,11.43
2018-06-25T23:51:33.368Z,11.40
2018-06-25T23:52:33.348Z,11.40
2018-06-25T23:53:33.366Z,11.42
2018-06-25T23:54:33.328Z,11.46
2018-06-25T23:55:33.350Z,11.32
2018-06-25T23:56:33.305Z,11.35
2018-06-25T23:57:33.308Z,11.28
2018-06-25T23:58:33.281Z,11.35
2018-06-25T23:59:33.271Z,11.35
